Time;durP1;ratioP1;P1;durP2;ratioP2;P2;SDS_P1;SDS_P2;PMS_P1;PMS_P2;Temp;Humidity;BMP_temperature;BMP_pressure;BME280_temperature;BME280_humidity;BME280_pressure;Samples;Min_cycle;Max_cycle;Signal;HPM_P1;HPM_P2
2022/11/24 00:02:10;;;;;;;19.97;8.40;;;7.60;99.90;;;;;;4992304;28;20042;-76
2022/11/24 00:04:36;;;;;;;17.13;8.40;;;7.60;99.90;;;;;;4964252;28;20360;-76
2022/11/24 00:07:01;;;;;;;19.50;8.70;;;7.40;99.90;;;;;;4963623;28;20521;-76
2022/11/24 00:09:27;;;;;;;18.63;9.13;;;7.40;99.90;;;;;;4991713;28;20365;-76
2022/11/24 00:11:53;;;;;;;19.53;8.77;;;8.00;99.90;;;;;;4963556;28;20487;-76
2022/11/24 00:14:19;;;;;;;22.93;9.33;;;7.20;99.90;;;;;;4966316;28;21812;-76
2022/11/24 00:16:44;;;;;;;26.70;9.77;;;7.20;99.90;;;;;;4991628;28;20721;-76
2022/11/24 00:19:10;;;;;;;21.92;8.77;;;7.10;99.90;;;;;;4966258;28;20375;-76
2022/11/24 00:21:37;;;;;;;19.10;8.23;;;7.10;99.90;;;;;;4989478;28;20035;-76
2022/11/24 00:24:03;;;;;;;22.67;9.30;;;7.10;99.90;;;;;;4984411;28;20286;-76
2022/11/24 00:26:31;;;;;;;20.35;8.30;;;7.00;99.90;;;;;;4982155;28;20522;-76
2022/11/24 00:29:00;;;;;;;21.77;8.40;;;7.00;99.90;;;;;;4976815;28;20061;-76
2022/11/24 00:31:28;;;;;;;23.17;8.70;;;7.00;99.90;;;;;;4979470;28;20153;-76
2022/11/24 00:33:56;;;;;;;18.95;7.95;;;6.90;99.90;;;;;;4986209;28;20054;-76
2022/11/24 00:36:23;;;;;;;22.13;9.30;;;6.90;99.90;;;;;;4991530;28;20042;-76
2022/11/24 00:38:57;;;;;;;26.15;9.10;;;7.20;99.90;;;;;;4981271;28;20373;-76
2022/11/24 00:41:24;;;;;;;26.08;8.95;;;7.60;99.90;;;;;;4970756;28;20097;-76
2022/11/24 00:43:50;;;;;;;20.38;8.43;;;6.80;99.90;;;;;;4968145;28;20400;-76
2022/11/24 00:46:16;;;;;;;22.63;8.10;;;6.80;99.90;;;;;;4965964;28;20507;-76
2022/11/24 00:48:42;;;;;;;18.02;8.80;;;6.80;99.90;;;;;;4991026;28;20674;-76
2022/11/24 00:51:10;;;;;;;16.50;6.63;;;7.10;99.90;;;;;;4965537;28;20042;-76
2022/11/24 00:53:36;;;;;;;26.40;8.13;;;6.80;99.90;;;;;;4963285;28;20051;-76
2022/11/24 00:56:02;;;;;;;23.90;7.47;;;7.40;99.90;;;;;;4965395;28;20034;-76
2022/11/24 00:58:29;;;;;;;25.33;8.10;;;6.70;99.90;;;;;;4963306;28;20125;-76
2022/11/24 01:00:59;;;;;;;19.40;7.95;;;6.80;99.90;;;;;;4978033;28;20042;-77
2022/11/24 01:03:25;;;;;;;20.15;7.55;;;7.80;99.90;;;;;;4986599;28;20065;-76
2022/11/24 01:05:51;;;;;;;20.73;6.90;;;6.80;99.90;;;;;;4990714;28;20042;-77
2022/11/24 01:08:16;;;;;;;21.53;9.13;;;7.10;99.90;;;;;;4963151;28;20093;-77
2022/11/24 01:10:42;;;;;;;23.73;8.07;;;6.80;99.90;;;;;;4972298;28;20623;-77
2022/11/24 01:13:08;;;;;;;22.88;7.53;;;6.70;99.90;;;;;;4967212;28;20808;-77
2022/11/24 01:15:35;;;;;;;24.13;6.83;;;6.70;99.90;;;;;;4970079;28;20080;-77
2022/11/24 01:18:01;;;;;;;20.38;6.75;;;6.70;99.90;;;;;;4980849;28;20122;-77
2022/11/24 01:20:27;;;;;;;21.60;6.78;;;6.70;99.90;;;;;;4981404;28;20085;-77
2022/11/24 01:22:52;;;;;;;19.23;6.63;;;6.70;99.90;;;;;;4948765;28;20050;-77
2022/11/24 01:25:18;;;;;;;25.03;6.40;;;7.20;99.90;;;;;;4981688;28;20089;-77
2022/11/24 01:27:44;;;;;;;24.30;7.03;;;6.60;99.90;;;;;;4964586;28;20046;-77
2022/11/24 01:30:10;;;;;;;18.95;6.13;;;6.60;99.90;;;;;;4969765;28;20816;-77
2022/11/24 01:32:36;;;;;;;22.95;5.85;;;6.60;99.90;;;;;;4962900;28;20098;-77
2022/11/24 01:35:05;;;;;;;16.92;5.60;;;6.60;99.90;;;;;;4959747;28;20034;-77
2022/11/24 01:37:31;;;;;;;19.08;5.72;;;6.70;99.90;;;;;;4953014;28;20046;-77
2022/11/24 01:39:57;;;;;;;18.10;6.43;;;6.70;99.90;;;;;;4966686;28;20034;-77
2022/11/24 01:42:23;;;;;;;18.23;6.10;;;6.60;99.90;;;;;;4953684;28;20082;-77
2022/11/24 01:45:41;;;;;;;24.65;6.72;;;6.60;99.90;;;;;;4990040;28;20090;-77
2022/11/24 01:48:15;;;;;;;21.90;4.95;;;6.60;99.90;;;;;;4931666;28;20107;-77
2022/11/24 01:50:42;;;;;;;17.17;4.95;;;6.70;99.90;;;;;;4990307;28;20069;-77
2022/11/24 01:53:09;;;;;;;;;;;6.70;99.90;;;;;;4990230;28;20184;-77
2022/11/24 01:55:38;;;;;;;10.70;4.20;;;7.80;99.90;;;;;;4964708;28;19969;-77
2022/11/24 01:58:12;;;;;;;15.52;4.97;;;6.70;99.90;;;;;;4980031;28;20038;-77
2022/11/24 02:00:44;;;;;;;21.42;5.00;;;6.80;99.90;;;;;;4983414;28;20042;-77
2022/11/24 02:03:15;;;;;;;19.90;6.00;;;6.80;99.90;;;;;;4966984;28;20034;-77
2022/11/24 02:05:44;;;;;;;18.98;5.72;;;6.80;99.90;;;;;;4990202;28;20150;-77
2022/11/24 02:08:20;;;;;;;21.48;6.32;;;6.80;99.90;;;;;;4967070;28;20046;-77
2022/11/24 02:10:47;;;;;;;18.10;5.05;;;6.80;99.90;;;;;;4968830;28;20062;-77
2022/11/24 02:13:14;;;;;;;24.58;6.05;;;6.90;99.90;;;;;;4990802;28;20042;-77
2022/11/24 02:15:40;;;;;;;18.17;4.93;;;6.90;99.90;;;;;;4966295;28;20070;-77
2022/11/24 02:18:06;;;;;;;21.05;5.03;;;7.00;99.90;;;;;;4993626;28;20120;-77
2022/11/24 02:20:32;;;;;;;22.43;5.70;;;6.90;99.90;;;;;;4994208;28;20419;-77
2022/11/24 02:23:11;;;;;;;15.23;5.10;;;6.90;99.90;;;;;;4993592;28;20787;-77
2022/11/24 02:26:10;;;;;;;20.10;5.20;;;7.00;99.90;;;;;;4971074;28;20113;-77
2022/11/24 02:28:37;;;;;;;20.52;4.60;;;6.90;99.90;;;;;;4970941;28;20504;-77
2022/11/24 02:31:04;;;;;;;18.95;4.72;;;7.00;99.90;;;;;;4970470;28;20061;-77
2022/11/24 02:33:31;;;;;;;17.48;4.72;;;6.90;99.90;;;;;;4984610;28;20050;-77
2022/11/24 02:35:56;;;;;;;18.75;4.80;;;6.90;99.90;;;;;;4963474;28;20077;-77
2022/11/24 02:38:33;;;;;;;14.93;4.40;;;6.90;99.90;;;;;;4993563;28;20085;-77
2022/11/24 02:41:06;;;;;;;22.35;5.22;;;6.80;99.90;;;;;;4984218;28;20042;-77
2022/11/24 02:43:37;;;;;;;21.88;4.57;;;7.20;99.90;;;;;;4970221;28;20041;-77
2022/11/24 02:46:03;;;;;;;16.58;4.25;;;6.90;99.90;;;;;;4972104;28;20069;-77
2022/11/24 02:48:29;;;;;;;15.43;4.53;;;6.70;99.90;;;;;;4981346;28;20071;-77
2022/11/24 02:50:55;;;;;;;17.42;4.55;;;7.10;99.90;;;;;;4987889;28;20046;-77
2022/11/24 02:53:20;;;;;;;18.17;4.33;;;6.70;99.90;;;;;;4992937;28;20142;-77
2022/11/24 02:55:46;;;;;;;18.95;4.22;;;6.60;99.90;;;;;;4961369;28;20134;-77
2022/11/24 02:58:13;;;;;;;15.57;3.97;;;6.60;99.90;;;;;;4983678;28;20134;-77
2022/11/24 03:00:39;;;;;;;15.15;4.43;;;6.60;99.90;;;;;;4963569;28;20288;-77
2022/11/24 03:03:05;;;;;;;18.10;4.38;;;6.50;99.90;;;;;;4980925;28;20046;-77
2022/11/24 03:05:31;;;;;;;15.43;3.77;;;6.70;99.90;;;;;;4967356;28;20054;-77
2022/11/24 03:07:56;;;;;;;24.53;4.90;;;6.60;99.90;;;;;;4964636;28;20305;-76
2022/11/24 03:10:23;;;;;;;22.27;4.47;;;6.50;99.90;;;;;;4967265;28;20282;-77
2022/11/24 03:12:49;;;;;;;18.65;4.10;;;7.10;99.90;;;;;;4969486;28;20324;-77
2022/11/24 03:15:14;;;;;;;20.40;4.25;;;6.60;99.90;;;;;;4978288;28;20047;-77
2022/11/24 03:17:40;;;;;;;16.50;4.30;;;6.50;99.90;;;;;;4972348;28;20035;-77
2022/11/24 03:20:07;;;;;;;14.48;3.60;;;6.70;99.90;;;;;;4985452;28;20286;-77
2022/11/24 03:22:32;;;;;;;18.63;4.10;;;6.60;99.90;;;;;;4992941;28;20123;-77
2022/11/24 03:24:58;;;;;;;23.52;4.95;;;6.70;99.90;;;;;;4981624;28;20059;-77
2022/11/24 03:27:24;;;;;;;17.23;3.93;;;6.70;99.90;;;;;;4992884;28;20177;-77
2022/11/24 03:29:49;;;;;;;19.88;4.60;;;7.10;99.90;;;;;;4964891;28;20414;-77
2022/11/24 03:32:15;;;;;;;22.23;4.40;;;7.10;99.90;;;;;;4969342;28;20042;-77
2022/11/24 03:34:41;;;;;;;14.27;3.43;;;6.80;99.90;;;;;;4972092;28;20121;-76
2022/11/24 03:37:06;;;;;;;20.43;4.03;;;6.80;99.90;;;;;;4980320;28;20285;-77
2022/11/24 03:39:32;;;;;;;17.53;3.63;;;6.70;99.90;;;;;;4985696;28;20349;-77
2022/11/24 03:41:57;;;;;;;18.53;3.40;;;6.80;99.90;;;;;;4969187;28;20057;-77
2022/11/24 03:44:23;;;;;;;15.07;3.50;;;7.00;99.90;;;;;;4982834;28;20129;-77
2022/11/24 03:46:50;;;;;;;14.60;3.70;;;6.80;99.90;;;;;;4992590;28;20073;-77
2022/11/24 03:49:16;;;;;;;22.75;3.90;;;6.90;99.90;;;;;;4992268;28;20356;-77
2022/11/24 03:51:42;;;;;;;18.23;4.30;;;6.80;99.90;;;;;;4982825;28;20491;-77
2022/11/24 03:54:08;;;;;;;16.13;3.27;;;7.00;99.90;;;;;;4975445;28;20081;-77
2022/11/24 03:56:34;;;;;;;19.88;3.92;;;6.80;99.90;;;;;;4948764;28;20535;-77
2022/11/24 03:58:59;;;;;;;13.38;3.13;;;6.80;99.90;;;;;;4982116;28;20113;-77
2022/11/24 04:01:25;;;;;;;26.15;4.55;;;6.70;99.90;;;;;;4964598;28;20057;-77
2022/11/24 04:03:51;;;;;;;18.03;3.90;;;6.70;99.90;;;;;;4961553;28;20463;-77
2022/11/24 04:06:16;;;;;;;20.40;4.00;;;6.70;99.90;;;;;;4968708;28;20285;-77
2022/11/24 04:08:42;;;;;;;15.33;3.20;;;6.70;99.90;;;;;;4971347;28;20070;-77
2022/11/24 04:12:42;;;;;;;13.03;2.80;;;6.60;99.90;;;;;;4968195;28;20793;-77
2022/11/24 04:13:53;;;;;;;16.15;3.47;;;7.40;99.90;;;;;;4981916;28;20046;-77
2022/11/24 04:16:19;;;;;;;15.97;3.70;;;6.60;99.90;;;;;;4965793;28;20045;-77
2022/11/24 04:18:44;;;;;;;15.20;3.13;;;6.60;99.90;;;;;;4992206;28;20046;-77
2022/11/24 04:21:10;;;;;;;13.27;3.37;;;6.50;99.90;;;;;;4968547;28;20097;-77
2022/11/24 04:23:36;;;;;;;13.47;3.20;;;6.50;99.90;;;;;;4992097;28;20483;-77
2022/11/24 04:26:01;;;;;;;18.20;3.20;;;6.50;99.90;;;;;;4965928;28;20046;-77
2022/11/24 04:28:27;;;;;;;17.20;3.17;;;6.50;99.90;;;;;;4992023;28;20048;-77
2022/11/24 04:30:53;;;;;;;17.97;2.67;;;6.80;99.90;;;;;;4968551;28;20290;-77
2022/11/24 04:33:18;;;;;;;15.40;2.90;;;6.90;99.90;;;;;;4966206;28;20038;-77
2022/11/24 04:35:44;;;;;;;13.03;2.57;;;6.60;99.90;;;;;;4972972;28;20450;-77
2022/11/24 04:38:10;;;;;;;15.67;3.90;;;7.20;99.90;;;;;;4973188;28;20377;-77
2022/11/24 04:40:36;;;;;;;11.33;2.53;;;6.80;99.90;;;;;;4991561;28;20054;-77
2022/11/24 04:43:01;;;;;;;16.92;3.03;;;7.40;99.90;;;;;;4967791;28;20117;-77
2022/11/24 04:45:27;;;;;;;11.50;2.90;;;6.70;99.90;;;;;;4991410;28;20162;-77
2022/11/24 04:47:53;;;;;;;11.47;2.77;;;6.70;99.90;;;;;;4965513;28;20038;-77
2022/11/24 04:50:19;;;;;;;15.23;3.03;;;7.10;99.90;;;;;;4975039;28;20039;-77
2022/11/24 04:52:45;;;;;;;19.85;3.55;;;6.70;99.90;;;;;;4965418;28;20297;-77
2022/11/24 04:55:10;;;;;;;14.93;2.60;;;6.80;99.90;;;;;;4967619;28;20142;-77
2022/11/24 04:57:37;;;;;;;19.27;3.03;;;6.70;99.90;;;;;;4966640;28;20335;-77
2022/11/24 05:00:03;;;;;;;14.05;2.53;;;6.80;99.90;;;;;;4986531;28;20873;-77
2022/11/24 05:02:28;;;;;;;20.80;3.38;;;6.80;99.90;;;;;;4949238;28;20034;-77
2022/11/24 05:04:54;;;;;;;16.80;2.77;;;6.70;99.90;;;;;;4991019;28;20050;-77
2022/11/24 05:07:20;;;;;;;11.03;2.27;;;6.90;99.90;;;;;;4972307;28;20369;-77
2022/11/24 05:12:30;;;;;;;13.23;2.42;;;6.80;99.90;;;;;;5004883;28;20418;-76
2022/11/24 05:14:57;;;;;;;13.63;2.80;;;6.60;99.90;;;;;;4963247;28;20113;-79
2022/11/24 05:17:23;;;;;;;12.32;2.60;;;6.60;99.90;;;;;;4965365;28;20042;-78
2022/11/24 05:19:49;;;;;;;15.63;2.80;;;6.50;99.90;;;;;;4967703;28;20050;-78
2022/11/24 05:22:14;;;;;;;16.93;2.60;;;6.50;99.90;;;;;;4967840;28;20042;-79
2022/11/24 05:24:40;;;;;;;13.13;2.63;;;6.40;99.90;;;;;;4970262;28;20289;-77
2022/11/24 05:27:06;;;;;;;13.23;2.57;;;6.40;99.90;;;;;;4968331;28;20086;-77
2022/11/24 05:29:31;;;;;;;17.37;2.80;;;6.40;99.90;;;;;;4965330;28;20050;-77
2022/11/24 05:31:57;;;;;;;9.90;2.20;;;7.40;99.90;;;;;;4960713;28;20443;-78
2022/11/24 05:34:23;;;;;;;10.13;2.05;;;6.30;99.90;;;;;;4960294;28;20046;-79
2022/11/24 05:36:51;;;;;;;11.50;2.63;;;6.30;99.90;;;;;;4986110;28;20152;-78
2022/11/24 05:39:18;;;;;;;10.00;2.10;;;6.30;99.90;;;;;;4990746;28;20119;-77
2022/11/24 05:41:44;;;;;;;14.02;2.70;;;6.20;99.90;;;;;;4976829;28;20392;-77
2022/11/24 05:44:09;;;;;;;14.85;2.63;;;6.30;99.90;;;;;;4967378;28;20042;-78
2022/11/24 05:46:35;;;;;;;18.20;3.17;;;6.20;99.90;;;;;;4980207;28;20046;-79
2022/11/24 05:49:01;;;;;;;13.90;2.63;;;6.40;99.90;;;;;;4965401;28;20410;-77
2022/11/24 05:51:26;;;;;;;18.17;2.97;;;6.20;99.90;;;;;;4972190;28;20057;-79
2022/11/24 05:53:52;;;;;;;14.13;2.65;;;6.20;99.90;;;;;;4985571;28;20046;-82
2022/11/24 05:56:18;;;;;;;12.98;2.60;;;6.60;99.90;;;;;;4946438;28;20761;-76
2022/11/24 05:58:44;;;;;;;17.25;2.35;;;6.10;99.90;;;;;;4980842;28;20038;-74
2022/11/24 06:01:09;;;;;;;13.02;2.30;;;6.30;99.90;;;;;;4967266;28;20045;-74
2022/11/24 06:03:35;;;;;;;14.75;2.17;;;6.30;99.90;;;;;;4986043;28;20038;-74
2022/11/24 06:06:02;;;;;;;14.70;2.75;;;6.00;99.90;;;;;;4965067;28;20038;-74
2022/11/24 06:08:27;;;;;;;12.05;3.08;;;6.00;99.90;;;;;;4967311;28;20702;-74
2022/11/24 06:10:53;;;;;;;9.20;2.10;;;6.10;99.90;;;;;;4991193;28;20077;-75
2022/11/24 06:13:19;;;;;;;12.03;2.50;;;6.10;99.90;;;;;;4967239;28;20052;-74
2022/11/24 06:15:45;;;;;;;13.02;2.75;;;6.00;99.90;;;;;;4980937;28;20085;-74
2022/11/24 06:18:10;;;;;;;19.45;2.28;;;6.00;99.90;;;;;;4990652;28;20399;-76
2022/11/24 06:20:36;;;;;;;13.70;2.73;;;6.00;99.90;;;;;;4967012;28;20042;-75
2022/11/24 06:23:02;;;;;;;20.08;3.03;;;6.40;99.90;;;;;;4990385;28;20756;-75
2022/11/24 06:25:28;;;;;;;15.07;2.83;;;6.00;99.90;;;;;;4951199;28;20046;-75
2022/11/24 06:27:54;;;;;;;16.60;3.10;;;6.70;99.90;;;;;;4980231;28;20290;-75
2022/11/24 06:30:20;;;;;;;16.52;3.08;;;5.90;99.90;;;;;;4984184;28;20046;-76
2022/11/24 06:32:46;;;;;;;9.13;2.07;;;5.90;99.90;;;;;;4963193;28;20049;-76
2022/11/24 06:35:15;;;;;;;33.65;3.35;;;5.90;99.90;;;;;;4990244;28;20100;-75
2022/11/24 06:37:41;;;;;;;11.00;2.55;;;6.00;99.90;;;;;;4966879;28;20038;-76
2022/11/24 06:40:10;;;;;;;18.67;3.00;;;6.10;99.90;;;;;;4967575;28;20041;-75
2022/11/24 06:42:36;;;;;;;17.63;2.60;;;6.00;99.90;;;;;;4969633;28;20282;-76
2022/11/24 06:45:02;;;;;;;19.55;2.78;;;6.10;99.90;;;;;;4964939;28;20039;-75
2022/11/24 06:47:28;;;;;;;9.45;2.65;;;6.00;99.90;;;;;;4980300;28;20386;-75
2022/11/24 06:49:53;;;;;;;12.43;2.87;;;6.00;99.90;;;;;;4990298;28;20050;-76
2022/11/24 06:52:19;;;;;;;16.23;2.77;;;7.10;99.90;;;;;;4966822;28;20050;-76
2022/11/24 06:54:45;;;;;;;14.83;2.50;;;6.10;99.90;;;;;;4985194;28;20329;-76
2022/11/24 06:57:10;;;;;;;16.57;3.13;;;6.10;99.90;;;;;;4966729;28;20035;-76
2022/11/24 06:59:36;;;;;;;13.50;2.20;;;6.00;99.90;;;;;;4967584;28;20314;-75
2022/11/24 07:02:02;;;;;;;8.90;2.20;;;5.90;99.90;;;;;;4966234;28;20150;-75
2022/11/24 07:04:27;;;;;;;12.73;2.63;;;5.90;99.90;;;;;;4970604;28;20285;-76
2022/11/24 07:06:53;;;;;;;13.68;2.78;;;5.90;99.90;;;;;;4986687;28;20043;-76
2022/11/24 07:09:19;;;;;;;14.13;2.87;;;5.90;99.90;;;;;;4984347;28;20066;-76
2022/11/24 07:11:44;;;;;;;12.57;2.92;;;5.90;99.90;;;;;;4970343;28;20046;-76
2022/11/24 07:14:10;;;;;;;19.50;3.27;;;5.90;99.90;;;;;;4988629;28;20047;-75
2022/11/24 07:16:36;;;;;;;18.63;2.93;;;6.00;99.90;;;;;;4993562;28;20030;-76
2022/11/24 07:19:02;;;;;;;15.30;3.00;;;6.40;99.90;;;;;;4986527;28;20360;-75
2022/11/24 07:21:29;;;;;;;12.80;3.13;;;6.50;99.90;;;;;;4993176;28;20441;-76
2022/11/24 07:23:56;;;;;;;11.10;2.50;;;6.70;99.90;;;;;;4992735;28;20045;-76
2022/11/24 07:26:22;;;;;;;13.55;3.10;;;6.30;99.90;;;;;;4992292;28;20046;-76
2022/11/24 07:28:48;;;;;;;15.57;2.58;;;5.90;99.90;;;;;;4982764;28;20046;-76
2022/11/24 07:31:17;;;;;;;13.38;2.83;;;5.80;99.90;;;;;;4969266;28;20500;-76
2022/11/24 07:33:48;;;;;;;16.88;2.97;;;5.80;99.90;;;;;;4980570;28;20526;-76
2022/11/24 07:36:14;;;;;;;11.85;2.50;;;5.90;99.90;;;;;;4969227;28;20057;-76
2022/11/24 07:38:39;;;;;;;8.30;2.50;;;5.90;99.90;;;;;;4991854;28;20038;-76
2022/11/24 07:41:08;;;;;;;11.67;2.83;;;6.00;99.90;;;;;;4973993;28;20057;-76
2022/11/24 07:43:35;;;;;;;15.18;3.20;;;5.90;99.90;;;;;;4969574;28;20384;-76
2022/11/24 07:46:01;;;;;;;11.23;2.60;;;6.60;99.90;;;;;;4992619;28;20046;-76
2022/11/24 07:48:27;;;;;;;8.50;2.55;;;5.90;99.90;;;;;;4993017;28;20479;-75
2022/11/24 07:50:53;;;;;;;13.47;3.00;;;5.80;99.90;;;;;;4969614;28;20038;-76
2022/11/24 07:53:18;;;;;;;10.90;2.60;;;5.90;99.90;;;;;;4953595;28;20721;-75
2022/11/24 07:55:53;;;;;;;16.80;3.13;;;5.80;99.90;;;;;;4992293;28;20150;-75
2022/11/24 07:58:19;;;;;;;11.07;2.55;;;5.90;99.90;;;;;;4984042;28;20286;-75
2022/11/24 08:00:45;;;;;;;13.30;2.60;;;6.00;99.90;;;;;;4966899;28;20042;-76
2022/11/24 08:03:10;;;;;;;13.80;2.80;;;6.00;99.90;;;;;;4985438;28;20057;-76
2022/11/24 08:05:36;;;;;;;14.60;2.90;;;6.80;99.90;;;;;;4992613;28;20041;-75
2022/11/24 08:08:02;;;;;;;12.33;3.23;;;6.20;99.90;;;;;;4971426;28;20085;-76
2022/11/24 08:10:28;;;;;;;10.43;3.75;;;6.30;99.90;;;;;;4970864;28;20471;-75
2022/11/24 08:12:53;;;;;;;12.67;2.93;;;6.50;99.90;;;;;;4982736;28;20491;-75
2022/11/24 08:15:19;;;;;;;13.67;3.27;;;6.60;99.90;;;;;;4960023;28;20046;-76
2022/11/24 08:17:44;;;;;;;15.00;4.00;;;7.40;99.90;;;;;;4966787;28;20278;-75
2022/11/24 08:20:10;;;;;;;17.03;3.03;;;7.50;99.90;;;;;;4971286;28;20113;-76
2022/11/24 08:22:36;;;;;;;11.07;3.20;;;7.60;99.90;;;;;;4971034;28;20117;-76
2022/11/24 08:25:01;;;;;;;9.60;3.57;;;7.80;99.90;;;;;;4966836;28;20070;-76
2022/11/24 08:27:29;;;;;;;13.15;3.53;;;8.10;99.90;;;;;;4969039;28;20046;-75
2022/11/24 08:29:55;;;;;;;12.75;3.35;;;8.40;99.90;;;;;;4987552;28;20133;-76
2022/11/24 08:32:20;;;;;;;12.67;3.40;;;8.60;99.90;;;;;;4966862;28;20134;-76
2022/11/24 08:34:46;;;;;;;14.05;3.30;;;8.70;99.90;;;;;;4971389;28;20034;-76
2022/11/24 08:37:12;;;;;;;12.93;2.90;;;9.10;99.90;;;;;;4962952;28;20405;-76
2022/11/24 08:39:38;;;;;;;12.15;2.75;;;9.60;99.90;;;;;;4969022;28;20027;-76
2022/11/24 08:42:04;;;;;;;11.35;2.78;;;9.90;99.90;;;;;;4991648;28;20038;-76
2022/11/24 08:44:29;;;;;;;13.98;3.35;;;10.20;99.90;;;;;;4971258;28;20478;-76
2022/11/24 08:46:55;;;;;;;13.07;3.20;;;10.50;99.90;;;;;;4982398;28;20599;-76
2022/11/24 08:49:21;;;;;;;8.82;2.97;;;10.70;99.90;;;;;;4977380;28;20450;-76
2022/11/24 08:51:47;;;;;;;15.15;2.97;;;10.90;99.90;;;;;;4984673;28;20499;-76
2022/11/24 08:54:14;;;;;;;11.77;3.47;;;11.10;99.90;;;;;;4991553;28;20061;-76
2022/11/24 08:56:41;;;;;;;11.48;2.92;;;11.40;99.90;;;;;;4966248;28;20035;-76
2022/11/24 08:59:07;;;;;;;10.98;2.70;;;11.70;99.90;;;;;;4991442;28;20069;-76
2022/11/24 09:01:32;;;;;;;11.02;2.80;;;12.00;99.90;;;;;;4991619;28;20069;-74
2022/11/24 09:03:58;;;;;;;10.85;3.40;;;12.30;99.90;;;;;;4991790;28;20038;-75
2022/11/24 09:06:26;;;;;;;11.93;2.75;;;12.60;99.90;;;;;;4966104;28;20038;-74
2022/11/24 09:08:55;;;;;;;12.88;3.80;;;12.80;99.90;;;;;;4991212;28;20045;-75
2022/11/24 09:11:22;;;;;;;8.55;2.85;;;13.00;99.90;;;;;;4963549;28;20045;-75
2022/11/24 09:13:48;;;;;;;13.45;2.70;;;13.00;99.90;;;;;;4963469;28;20046;-75
2022/11/24 09:16:25;;;;;;;10.23;2.65;;;12.90;99.90;;;;;;4968646;28;20034;-75
2022/11/24 09:18:59;;;;;;;11.13;3.08;;;12.30;99.90;;;;;;4984250;28;20038;-74
2022/11/24 09:21:25;;;;;;;9.25;3.00;;;11.80;99.90;;;;;;4960901;28;20487;-75
2022/11/24 09:23:52;;;;;;;11.63;2.70;;;11.20;99.90;;;;;;4988994;28;20121;-75
2022/11/24 09:26:22;;;;;;;8.55;2.60;;;10.90;99.90;;;;;;4968536;28;20513;-75
2022/11/24 09:28:49;;;;;;;10.27;3.00;;;10.80;99.90;;;;;;4984259;28;20683;-75
2022/11/24 09:31:17;;;;;;;9.43;2.80;;;11.00;99.90;;;;;;4984162;28;20138;-75
2022/11/24 09:33:44;;;;;;;8.57;2.55;;;11.30;99.90;;;;;;4949206;28;20365;-75
2022/11/24 09:36:10;;;;;;;5.30;2.05;;;11.60;99.90;;;;;;4965992;28;20569;-75
2022/11/24 09:38:36;;;;;;;7.60;2.47;;;11.90;99.90;;;;;;4990995;28;20065;-74
2022/11/24 09:41:30;;;;;;;6.95;2.20;;;12.40;99.90;;;;;;4968131;28;20078;-75
2022/11/24 09:44:21;;;;;;;8.02;2.22;;;12.70;99.90;;;;;;4956864;28;20182;-75
2022/11/24 09:46:55;;;;;;;6.70;2.53;;;13.10;99.90;;;;;;4972236;28;20038;-75
2022/11/24 09:49:37;;;;;;;7.43;1.88;;;13.40;99.90;;;;;;4967922;28;20042;-76
2022/11/24 09:52:09;;;;;;;4.30;1.60;;;13.90;99.90;;;;;;4983878;28;20104;-76
2022/11/24 09:54:48;;;;;;;5.35;1.70;;;14.20;99.90;;;;;;4967372;28;20046;-76
2022/11/24 09:57:16;;;;;;;7.13;2.22;;;14.40;99.90;;;;;;4965047;28;20098;-76
2022/11/24 09:59:42;;;;;;;5.93;1.83;;;14.40;99.90;;;;;;4980988;28;20046;-76
2022/11/24 10:02:11;;;;;;;5.15;1.48;;;14.70;99.90;;;;;;4991153;28;20049;-76
2022/11/24 10:04:45;;;;;;;2.63;1.30;;;14.70;99.90;;;;;;4983638;28;20565;-74
2022/11/24 10:07:28;;;;;;;5.05;1.50;;;14.70;99.90;;;;;;4969826;28;20046;-74
2022/11/24 10:10:03;;;;;;;5.93;1.77;;;15.10;99.90;;;;;;4976690;28;20039;-74
2022/11/24 10:12:50;;;;;;;5.32;1.63;;;15.20;99.90;;;;;;4979922;28;20538;-74
2022/11/24 10:15:46;;;;;;;5.65;2.08;;;15.10;99.90;;;;;;4985624;28;20093;-75
2022/11/24 10:18:44;;;;;;;7.10;1.80;;;15.50;99.90;;;;;;4983474;28;20045;-74
2022/11/24 10:21:31;;;;;;;7.15;1.52;;;15.60;99.90;;;;;;4979290;28;20101;-74
2022/11/24 10:24:03;;;;;;;4.75;1.58;;;15.80;99.90;;;;;;4980874;28;20039;-74
2022/11/24 10:26:43;;;;;;;6.90;1.80;;;15.90;99.90;;;;;;4981163;28;20050;-74
2022/11/24 10:29:22;;;;;;;4.07;1.35;;;16.20;99.90;;;;;;4983710;28;20035;-75
2022/11/24 10:31:54;;;;;;;3.60;1.42;;;16.30;99.90;;;;;;4979072;28;20391;-75
2022/11/24 10:34:49;;;;;;;6.40;1.60;;;16.40;99.90;;;;;;4989061;28;20043;-74
2022/11/24 10:37:35;;;;;;;5.07;1.30;;;16.30;99.90;;;;;;4979496;28;20509;-75
2022/11/24 10:40:23;;;;;;;4.13;1.50;;;16.40;99.90;;;;;;4982438;28;20045;-75
2022/11/24 10:42:50;;;;;;;6.75;1.40;;;16.10;99.90;;;;;;4969131;28;20042;-75
2022/11/24 10:45:19;;;;;;;8.45;1.98;;;15.30;99.90;;;;;;4984905;28;20051;-75
2022/11/24 10:47:45;;;;;;;4.65;1.50;;;14.70;99.90;;;;;;4993946;28;20048;-75
2022/11/24 10:50:24;;;;;;;4.22;1.30;;;14.00;99.90;;;;;;4989491;28;20046;-75
2022/11/24 10:53:21;;;;;;;8.90;1.83;;;13.60;99.90;;;;;;4968977;28;20122;-75
2022/11/24 10:55:53;;;;;;;6.30;1.63;;;13.10;99.90;;;;;;4976177;28;20065;-75
2022/11/24 10:58:25;;;;;;;4.45;1.20;;;12.60;99.90;;;;;;4992519;28;20482;-74
2022/11/24 11:00:52;;;;;;;5.50;1.50;;;12.50;99.90;;;;;;4986957;28;20038;-74
2022/11/24 11:03:26;;;;;;;6.63;1.83;;;12.90;99.90;;;;;;4971250;28;20065;-75
2022/11/24 11:06:04;;;;;;;4.13;1.35;;;13.80;99.90;;;;;;4994020;28;20379;-75
2022/11/24 11:08:33;;;;;;;5.82;1.48;;;14.70;99.90;;;;;;4993780;28;20046;-75
2022/11/24 11:11:15;;;;;;;5.80;1.50;;;15.70;99.90;;;;;;4961518;28;20045;-75
2022/11/24 11:13:51;;;;;;;6.82;1.50;;;16.30;99.90;;;;;;4993719;28;20034;-75
2022/11/24 11:16:45;;;;;;;7.22;1.77;;;16.60;99.90;;;;;;4989334;28;20555;-75
2022/11/24 11:19:34;;;;;;;4.50;1.45;;;16.90;99.90;;;;;;4980892;28;20047;-75
2022/11/24 11:22:04;;;;;;;5.15;1.50;;;17.20;99.90;;;;;;4982879;28;20047;-74
2022/11/24 11:24:30;;;;;;;6.88;1.70;;;17.20;99.90;;;;;;4986618;28;20038;-75
2022/11/24 11:27:15;;;;;;;4.97;1.40;;;17.50;99.90;;;;;;4983656;28;20043;-75
2022/11/24 11:29:40;;;;;;;5.45;1.48;;;17.90;99.90;;;;;;4985948;28;20101;-74
2022/11/24 11:32:17;;;;;;;10.13;1.48;;;18.10;99.90;;;;;;4979653;28;20499;-74
2022/11/24 11:34:43;;;;;;;5.70;1.65;;;18.20;99.90;;;;;;4970140;28;20054;-74
2022/11/24 11:37:13;;;;;;;4.80;1.65;;;18.30;99.90;;;;;;4992870;28;20034;-74
2022/11/24 11:39:48;;;;;;;5.60;1.90;;;18.20;99.90;;;;;;4993321;28;20117;-74
2022/11/24 11:42:19;;;;;;;4.95;1.65;;;18.80;99.90;;;;;;4984837;28;20125;-74
2022/11/24 11:44:47;;;;;;;4.78;1.63;;;18.90;99.90;;;;;;4992395;28;20461;-74
2022/11/24 11:47:21;;;;;;;5.88;1.50;;;19.20;99.90;;;;;;4992994;28;20398;-75
2022/11/24 11:49:48;;;;;;;6.15;1.95;;;19.40;99.90;;;;;;4985765;28;20151;-75
2022/11/24 11:52:24;;;;;;;6.30;1.60;;;19.30;99.90;;;;;;4983080;28;20052;-74
2022/11/24 11:55:02;;;;;;;6.40;1.58;;;19.20;99.90;;;;;;4969457;28;20050;-74
2022/11/24 11:58:00;;;;;;;7.05;2.20;;;19.20;99.90;;;;;;4984016;28;20078;-74
2022/11/24 12:00:26;;;;;;;;;;;19.10;99.90;;;;;;4984597;28;20061;-74
2022/11/24 12:03:22;;;;;;;6.38;1.65;;;19.20;99.90;;;;;;4985360;28;19925;-75
2022/11/24 12:06:13;;;;;;;5.20;1.65;;;19.20;99.90;;;;;;4984309;28;20058;-75
2022/11/24 12:09:26;;;;;;;6.78;1.88;;;19.40;99.90;;;;;;4967373;28;20046;-74
2022/11/24 12:12:10;;;;;;;7.55;1.90;;;19.50;99.90;;;;;;4985961;28;20055;-74
2022/11/24 12:15:00;;;;;;;7.50;1.65;;;19.80;99.90;;;;;;4965881;28;20068;-74
2022/11/24 12:17:56;;;;;;;7.65;1.50;;;19.50;99.90;;;;;;4982982;28;20121;-74
2022/11/24 12:20:30;;;;;;;9.05;1.98;;;19.70;99.90;;;;;;4983151;28;20061;-74
2022/11/24 12:23:21;;;;;;;8.30;1.98;;;19.50;99.90;;;;;;4991863;28;20046;-74
2022/11/24 12:25:58;;;;;;;7.60;1.75;;;19.80;99.90;;;;;;4992257;28;20049;-74
2022/11/24 12:28:36;;;;;;;4.80;1.42;;;19.40;99.90;;;;;;4988240;28;20034;-75
2022/11/24 12:31:10;;;;;;;7.60;1.60;;;19.60;99.90;;;;;;4983149;28;20097;-74
2022/11/24 12:34:13;;;;;;;6.22;2.00;;;19.40;99.90;;;;;;4966685;28;20073;-74
2022/11/24 12:36:53;;;;;;;6.10;1.80;;;19.30;99.90;;;;;;4986334;28;20407;-74
2022/11/24 12:39:25;;;;;;;6.88;2.08;;;18.70;99.90;;;;;;4981350;28;20110;-74
2022/11/24 12:42:08;;;;;;;4.78;1.38;;;18.00;99.90;;;;;;4976513;28;20053;-75
2022/11/24 12:45:08;;;;;;;7.72;1.70;;;17.40;99.90;;;;;;4991817;28;20104;-74
2022/11/24 12:47:44;;;;;;;6.65;1.70;;;16.60;99.90;;;;;;4983969;28;20039;-74
2022/11/24 12:50:19;;;;;;;5.28;1.40;;;16.10;99.90;;;;;;4982849;28;20046;-74
2022/11/24 12:52:47;;;;;;;7.43;1.80;;;15.90;99.90;;;;;;4978519;28;20038;-74
2022/11/24 12:55:19;;;;;;;5.50;1.30;;;15.70;99.90;;;;;;4986659;28;20047;-74
2022/11/24 12:58:16;;;;;;;8.10;1.67;;;15.30;99.90;;;;;;4985270;28;20050;-74
2022/11/24 13:01:17;;;;;;;8.45;1.60;;;15.10;99.90;;;;;;4971514;28;20042;-74
2022/11/24 13:03:57;;;;;;;8.35;1.67;;;14.90;99.90;;;;;;4981243;28;20058;-74
2022/11/24 13:06:32;;;;;;;5.90;1.17;;;14.70;99.90;;;;;;4983623;28;20042;-74